Mescalero, New Mexico
Current Conditions -  °F | °C
As of 9:35 AM on Tuesday 27 Jan 2015 (Local Time) from KSRR Reporting Station
Clear Clear  
Wind Chill: 52°   Ceiling: Unl
Heat Index: 52°   Visibility: 10mi
Dew Point: 21°   Wind: 0mph
Humidity: 30%   Direction: NA
Pressure: 30.4"   Gusts: NA
Location:  33.16°N, 105.77°W
Report Text: KSRR 271635Z AUTO 00000KT 10SM CLR 11/M06 A3040 RMK AO2
Loading
Personal Weather Stations






























Interactive Weather Map New forecast layout! Learn more

10-Day Weather Forecast

Advertisements
Track Severe Weather on mobile